createdAt,value
2019-06-27T00:00:49.192Z,28.70
2019-06-27T00:03:18.372Z,28.70
2019-06-27T00:05:47.497Z,28.60
2019-06-27T00:08:16.616Z,28.60
2019-06-27T00:10:46.028Z,28.60
2019-06-27T00:13:15.109Z,28.50
2019-06-27T00:15:44.259Z,28.50
2019-06-27T00:18:13.365Z,28.50
2019-06-27T00:20:42.514Z,28.40
2019-06-27T00:23:11.659Z,28.40
2019-06-27T00:25:40.767Z,28.40
2019-06-27T00:28:09.884Z,28.40
2019-06-27T00:30:39.003Z,28.30
2019-06-27T00:33:08.091Z,28.20
2019-06-27T00:35:37.697Z,28.20
2019-06-27T00:38:06.784Z,28.20
2019-06-27T00:40:35.903Z,28.10
2019-06-27T00:43:05.007Z,28.10
2019-06-27T00:45:34.224Z,28.10
2019-06-27T00:48:03.346Z,28.00
2019-06-27T00:50:32.427Z,28.00
2019-06-27T00:53:01.553Z,28.00
2019-06-27T00:55:30.659Z,28.00
2019-06-27T00:57:59.819Z,27.90
2019-06-27T01:00:28.929Z,27.90
2019-06-27T01:02:58.062Z,27.80
2019-06-27T01:05:27.173Z,27.80
2019-06-27T01:07:56.269Z,27.80
2019-06-27T01:10:25.352Z,27.80
2019-06-27T01:12:54.458Z,27.70
2019-06-27T01:15:23.665Z,27.70
2019-06-27T01:17:52.771Z,27.70
2019-06-27T01:20:21.885Z,27.60
2019-06-27T01:22:50.994Z,27.60
2019-06-27T01:25:20.116Z,27.60
2019-06-27T01:27:49.258Z,27.50
2019-06-27T01:30:18.836Z,27.50
2019-06-27T01:32:47.942Z,27.50
2019-06-27T01:35:17.008Z,27.50
2019-06-27T01:37:46.148Z,27.40
2019-06-27T01:40:15.647Z,27.40
2019-06-27T01:42:44.779Z,27.40
2019-06-27T01:45:19.766Z,27.40
2019-06-27T01:47:48.793Z,27.30
2019-06-27T01:50:17.889Z,27.30
2019-06-27T01:52:46.985Z,27.30
2019-06-27T01:55:17.062Z,27.30
2019-06-27T01:57:47.347Z,27.30
2019-06-27T02:00:18.606Z,27.20
2019-06-27T02:02:47.727Z,27.20
2019-06-27T02:05:16.897Z,27.10
2019-06-27T02:07:46.101Z,27.10
2019-06-27T02:10:15.592Z,27.10
2019-06-27T02:12:44.733Z,27.00
2019-06-27T02:15:15.246Z,27.00
2019-06-27T02:17:44.377Z,27.00
2019-06-27T02:20:14.052Z,27.00
2019-06-27T02:22:43.195Z,27.00
2019-06-27T02:25:13.213Z,27.00
2019-06-27T02:27:42.331Z,26.90
2019-06-27T02:30:13.291Z,26.90
2019-06-27T02:32:42.471Z,26.90
2019-06-27T02:35:11.829Z,26.90
2019-06-27T02:37:41.118Z,26.80
2019-06-27T02:40:10.856Z,26.80
2019-06-27T02:42:39.975Z,26.80
2019-06-27T02:45:09.453Z,26.80
2019-06-27T02:47:38.558Z,26.80
2019-06-27T02:50:07.915Z,26.80
2019-06-27T02:52:37.058Z,26.70
2019-06-27T02:55:06.199Z,26.70
2019-06-27T02:57:35.301Z,26.70
2019-06-27T03:00:04.459Z,26.70
2019-06-27T03:02:33.556Z,26.60
2019-06-27T03:05:02.664Z,26.60
2019-06-27T03:07:31.752Z,26.60
2019-06-27T03:10:00.931Z,26.60
2019-06-27T03:12:30.264Z,26.50
2019-06-27T03:14:59.382Z,26.50
2019-06-27T03:17:28.500Z,26.50
2019-06-27T03:19:57.714Z,26.40
2019-06-27T03:22:26.831Z,26.40
2019-06-27T03:24:55.996Z,26.40
2019-06-27T03:27:25.088Z,26.40
2019-06-27T03:29:54.311Z,26.40
2019-06-27T03:32:23.430Z,26.30
2019-06-27T03:34:52.561Z,26.30
2019-06-27T03:37:21.622Z,26.30
2019-06-27T03:39:50.755Z,26.20
2019-06-27T03:42:19.871Z,26.20
2019-06-27T03:44:49.000Z,26.20
2019-06-27T03:47:18.141Z,26.20
2019-06-27T03:49:47.251Z,26.20
2019-06-27T03:52:16.332Z,26.10
2019-06-27T03:54:45.482Z,26.10
2019-06-27T03:57:14.573Z,26.10
2019-06-27T03:59:43.704Z,26.10
2019-06-27T04:02:12.790Z,26.10
2019-06-27T04:04:41.905Z,26.10
2019-06-27T04:07:11.019Z,26.00
2019-06-27T04:09:40.130Z,26.00
2019-06-27T04:12:09.227Z,26.00
2019-06-27T04:14:38.372Z,26.00
2019-06-27T04:17:07.529Z,26.00
2019-06-27T04:19:36.670Z,26.00
2019-06-27T04:22:05.749Z,26.00
2019-06-27T04:24:34.851Z,26.00
2019-06-27T04:27:04.021Z,26.00
2019-06-27T04:29:34.626Z,26.00
2019-06-27T04:32:04.042Z,26.00
2019-06-27T04:34:33.160Z,26.00
2019-06-27T04:37:02.255Z,26.00
2019-06-27T04:39:31.411Z,26.00
2019-06-27T04:42:00.486Z,26.10
2019-06-27T04:44:29.622Z,26.00
2019-06-27T04:46:58.717Z,26.10
2019-06-27T04:49:27.823Z,26.10
2019-06-27T04:51:56.935Z,26.10
2019-06-27T04:54:26.106Z,26.10
2019-06-27T04:56:55.268Z,26.10
2019-06-27T04:59:24.384Z,26.10
2019-06-27T05:01:53.497Z,26.20
2019-06-27T05:04:22.674Z,26.20
2019-06-27T05:06:51.908Z,26.20
2019-06-27T05:09:20.929Z,26.20
2019-06-27T05:11:50.076Z,26.20
2019-06-27T05:14:19.165Z,26.20
2019-06-27T05:16:48.383Z,26.20
2019-06-27T05:19:17.533Z,26.20
2019-06-27T05:21:46.647Z,26.20
2019-06-27T05:24:15.818Z,26.30
2019-06-27T05:26:44.939Z,26.30
2019-06-27T05:29:14.057Z,26.30
2019-06-27T05:31:43.235Z,26.40
2019-06-27T05:34:12.340Z,26.40
2019-06-27T05:36:41.648Z,26.40
2019-06-27T05:39:10.742Z,26.40
2019-06-27T05:41:39.853Z,26.40
2019-06-27T05:44:08.957Z,26.50
2019-06-27T05:46:38.093Z,26.50
2019-06-27T05:49:07.207Z,26.50
2019-06-27T05:51:36.375Z,26.50
2019-06-27T05:54:05.577Z,26.50
2019-06-27T05:56:34.663Z,26.50
2019-06-27T05:59:03.799Z,26.60
2019-06-27T06:01:32.923Z,26.60
2019-06-27T06:04:02.111Z,26.60
2019-06-27T06:06:31.141Z,26.60
2019-06-27T06:09:00.257Z,26.60
2019-06-27T06:11:29.389Z,26.60
2019-06-27T06:13:58.480Z,26.70
2019-06-27T06:16:27.506Z,26.70
2019-06-27T06:18:56.623Z,26.80
2019-06-27T06:21:25.802Z,26.80
2019-06-27T06:23:54.880Z,26.90
2019-06-27T06:26:24.026Z,26.90
2019-06-27T06:28:53.106Z,27.00
2019-06-27T06:31:22.260Z,27.10
2019-06-27T06:33:51.297Z,27.10
2019-06-27T06:36:20.402Z,27.10
2019-06-27T06:38:49.501Z,27.10
2019-06-27T06:41:18.653Z,27.20
2019-06-27T06:43:47.824Z,27.20
2019-06-27T06:46:17.001Z,27.20
2019-06-27T06:48:46.108Z,27.30
2019-06-27T06:51:15.275Z,27.30
2019-06-27T06:53:44.379Z,27.30
2019-06-27T06:56:13.468Z,27.30
2019-06-27T06:58:42.622Z,27.40
2019-06-27T07:01:11.698Z,27.40
2019-06-27T07:03:40.804Z,27.40
2019-06-27T07:06:09.931Z,27.50
2019-06-27T07:08:39.091Z,27.50
2019-06-27T07:11:08.267Z,27.60
2019-06-27T07:13:37.449Z,27.60
2019-06-27T07:16:06.531Z,27.70
2019-06-27T07:18:35.671Z,27.80
2019-06-27T07:21:04.769Z,27.80
2019-06-27T07:23:34.007Z,27.90
2019-06-27T07:26:03.078Z,27.90
2019-06-27T07:28:32.283Z,28.00
2019-06-27T07:31:16.905Z,28.00
2019-06-27T07:33:33.711Z,28.00
2019-06-27T07:36:02.870Z,28.10
2019-06-27T07:38:32.013Z,28.10
2019-06-27T07:41:01.245Z,28.10
2019-06-27T07:43:30.341Z,28.20
2019-06-27T07:45:59.419Z,28.20
2019-06-27T07:48:28.446Z,28.30
2019-06-27T07:50:57.544Z,28.30
2019-06-27T07:53:26.689Z,28.40
2019-06-27T07:55:55.911Z,28.40
2019-06-27T07:58:25.097Z,28.50
2019-06-27T08:00:54.185Z,28.60
2019-06-27T08:03:23.368Z,28.60
2019-06-27T08:05:52.558Z,28.70
2019-06-27T08:08:21.749Z,28.80
2019-06-27T08:10:50.897Z,28.90
2019-06-27T08:13:20.056Z,29.00
2019-06-27T08:15:49.055Z,29.00
2019-06-27T08:18:18.144Z,29.10
2019-06-27T08:20:47.263Z,29.20
2019-06-27T08:23:16.366Z,29.30
2019-06-27T08:25:45.459Z,29.30
2019-06-27T08:28:14.570Z,29.40
2019-06-27T08:30:43.553Z,29.50
2019-06-27T08:33:12.700Z,29.60
2019-06-27T08:35:41.827Z,29.70
2019-06-27T08:38:11.034Z,29.70
2019-06-27T08:40:40.142Z,29.80
2019-06-27T08:43:09.161Z,29.80
2019-06-27T08:45:40.127Z,29.90
2019-06-27T08:48:09.318Z,30.00
2019-06-27T08:50:38.475Z,30.10
2019-06-27T08:53:07.601Z,30.10
2019-06-27T08:55:36.674Z,30.20
2019-06-27T08:58:05.787Z,30.20
2019-06-27T09:00:34.884Z,30.30
2019-06-27T09:03:04.010Z,30.30
2019-06-27T09:05:33.117Z,30.40
2019-06-27T09:08:02.813Z,30.40
2019-06-27T09:10:31.938Z,30.50
2019-06-27T09:13:01.054Z,30.50
2019-06-27T09:15:30.233Z,30.60
2019-06-27T09:18:00.195Z,30.60
2019-06-27T09:20:29.363Z,30.70
2019-06-27T09:22:58.476Z,30.80
2019-06-27T09:25:27.621Z,30.90
2019-06-27T09:27:56.698Z,30.90
2019-06-27T09:30:26.063Z,31.00
2019-06-27T09:32:55.221Z,31.00
2019-06-27T09:35:24.314Z,31.10
2019-06-27T09:37:53.442Z,31.20
2019-06-27T09:40:23.639Z,31.30
2019-06-27T09:42:52.743Z,31.40
2019-06-27T09:45:22.461Z,31.50
2019-06-27T09:47:51.606Z,31.60
2019-06-27T09:50:21.995Z,31.60
2019-06-27T09:52:51.089Z,31.60
2019-06-27T09:55:21.728Z,31.70
2019-06-27T09:57:50.868Z,31.70
2019-06-27T10:00:22.474Z,31.80
2019-06-27T10:02:51.653Z,31.90
2019-06-27T10:05:20.719Z,32.00
2019-06-27T10:07:49.838Z,32.10
2019-06-27T10:10:19.950Z,32.20
2019-06-27T10:12:49.064Z,32.30
2019-06-27T10:15:18.461Z,32.40
2019-06-27T10:17:47.566Z,32.40
2019-06-27T10:20:16.848Z,32.60
2019-06-27T10:22:45.941Z,32.60
2019-06-27T10:25:15.126Z,32.70
2019-06-27T10:27:44.234Z,32.80
2019-06-27T10:30:14.699Z,32.80
2019-06-27T10:32:57.754Z,32.90
2019-06-27T10:35:14.802Z,33.00
2019-06-27T10:37:43.894Z,33.10
2019-06-27T10:40:13.404Z,33.20
2019-06-27T10:42:42.502Z,33.20
2019-06-27T10:45:12.146Z,33.30
2019-06-27T10:47:41.238Z,33.30
2019-06-27T10:50:11.692Z,33.40
2019-06-27T10:52:40.922Z,33.50
2019-06-27T10:55:10.326Z,33.50
2019-06-27T10:57:39.438Z,33.60
2019-06-27T11:00:10.423Z,33.60
2019-06-27T11:02:39.725Z,33.70
2019-06-27T11:05:09.408Z,33.80
2019-06-27T11:07:40.974Z,33.90
2019-06-27T11:10:10.293Z,34.00
2019-06-27T11:12:39.462Z,34.10
2019-06-27T11:15:10.458Z,34.20
2019-06-27T11:17:39.577Z,34.20
2019-06-27T11:20:09.026Z,34.30
2019-06-27T11:22:38.217Z,34.30
2019-06-27T11:25:07.612Z,34.30
2019-06-27T11:27:36.677Z,34.40
2019-06-27T11:30:06.923Z,34.40
2019-06-27T11:32:36.119Z,34.40
2019-06-27T11:35:05.492Z,34.50
2019-06-27T11:37:34.621Z,34.50
2019-06-27T11:40:04.007Z,34.60
2019-06-27T11:42:33.105Z,34.70
2019-06-27T11:45:02.329Z,34.80
2019-06-27T11:47:34.533Z,34.80
2019-06-27T11:50:03.812Z,34.90
2019-06-27T11:52:32.996Z,34.90
2019-06-27T11:55:03.350Z,35.00
2019-06-27T11:57:32.409Z,35.00
2019-06-27T12:00:01.629Z,35.00
2019-06-27T12:02:30.885Z,35.10
2019-06-27T12:05:00.059Z,35.20
2019-06-27T12:07:29.152Z,35.20
2019-06-27T12:09:58.263Z,35.20
2019-06-27T12:12:27.351Z,35.30
2019-06-27T12:14:56.375Z,35.30
2019-06-27T12:17:25.502Z,35.40
2019-06-27T12:19:54.605Z,35.60
2019-06-27T12:22:23.759Z,35.60
2019-06-27T12:24:52.977Z,35.70
2019-06-27T12:27:22.142Z,35.70
2019-06-27T12:29:51.287Z,35.80
2019-06-27T12:32:20.384Z,35.90
2019-06-27T12:34:49.487Z,36.00
2019-06-27T12:37:18.633Z,36.00
2019-06-27T12:39:47.744Z,35.90
2019-06-27T12:42:31.580Z,35.90
2019-06-27T12:44:47.874Z,35.90
2019-06-27T12:47:16.989Z,35.90
2019-06-27T12:50:01.377Z,35.80
2019-06-27T12:52:16.920Z,35.90
2019-06-27T12:54:46.024Z,35.80
2019-06-27T12:57:15.104Z,35.90
2019-06-27T12:59:44.235Z,36.00
2019-06-27T13:02:13.349Z,36.00
2019-06-27T13:04:42.434Z,36.10
2019-06-27T13:07:11.570Z,36.10
2019-06-27T13:09:40.675Z,36.10
2019-06-27T13:12:09.756Z,36.10
2019-06-27T13:14:38.870Z,36.20
2019-06-27T13:17:07.980Z,36.20
2019-06-27T13:19:39.676Z,36.20
2019-06-27T13:22:07.908Z,36.20
2019-06-27T13:24:37.044Z,36.20
2019-06-27T13:27:06.192Z,36.30
2019-06-27T13:29:35.332Z,36.30
2019-06-27T13:32:04.399Z,36.30
2019-06-27T13:34:40.416Z,36.40
2019-06-27T13:37:04.317Z,36.40
2019-06-27T13:39:34.598Z,36.50
2019-06-27T13:42:03.772Z,36.50
2019-06-27T13:44:32.871Z,36.60
2019-06-27T13:47:01.972Z,36.70
2019-06-27T13:49:31.065Z,36.70
2019-06-27T13:52:00.141Z,36.70
2019-06-27T13:54:29.257Z,36.70
2019-06-27T13:56:58.345Z,36.80
2019-06-27T13:59:27.504Z,36.80
2019-06-27T14:01:56.696Z,36.70
2019-06-27T14:04:25.887Z,36.70
2019-06-27T14:06:55.064Z,36.70
2019-06-27T14:09:24.172Z,36.70
2019-06-27T14:11:53.269Z,36.80
2019-06-27T14:14:22.379Z,36.80
2019-06-27T14:16:51.494Z,36.80
2019-06-27T14:19:20.836Z,36.70
2019-06-27T14:21:50.435Z,36.80
2019-06-27T14:24:19.524Z,36.80
2019-06-27T14:26:48.696Z,36.80
2019-06-27T14:29:17.811Z,36.80
2019-06-27T14:31:46.943Z,36.80
2019-06-27T14:34:16.122Z,36.80
2019-06-27T14:36:45.208Z,36.80
2019-06-27T14:39:14.297Z,36.90
2019-06-27T14:41:43.408Z,36.90
2019-06-27T14:44:12.493Z,37.00
2019-06-27T14:46:41.603Z,37.00
2019-06-27T14:49:10.730Z,37.10
2019-06-27T14:51:39.891Z,37.10
2019-06-27T14:54:09.001Z,37.00
2019-06-27T14:56:38.110Z,37.00
2019-06-27T14:59:07.224Z,37.00
2019-06-27T15:01:36.324Z,37.10
2019-06-27T15:04:05.419Z,37.10
2019-06-27T15:06:34.508Z,37.00
2019-06-27T15:09:03.931Z,37.00
2019-06-27T15:11:32.984Z,37.00
2019-06-27T15:14:02.107Z,36.90
2019-06-27T15:16:31.314Z,36.90
2019-06-27T15:19:00.444Z,36.90
2019-06-27T15:21:29.548Z,36.90
2019-06-27T15:23:58.642Z,36.90
2019-06-27T15:26:27.804Z,36.90
2019-06-27T15:28:56.954Z,36.80
2019-06-27T15:31:26.075Z,36.80
2019-06-27T15:33:55.154Z,36.80
2019-06-27T15:36:24.254Z,36.80
2019-06-27T15:38:53.379Z,36.80
2019-06-27T15:41:22.607Z,36.80
2019-06-27T15:43:51.905Z,36.80
2019-06-27T15:46:21.029Z,36.70
2019-06-27T15:48:50.115Z,36.80
2019-06-27T15:51:19.264Z,36.70
2019-06-27T15:53:48.364Z,36.70
2019-06-27T15:56:17.503Z,36.70
2019-06-27T15:58:46.629Z,36.70
2019-06-27T16:01:15.796Z,36.70
2019-06-27T16:03:44.879Z,36.70
2019-06-27T16:06:15.130Z,36.70
2019-06-27T16:08:44.441Z,36.70
2019-06-27T16:11:13.525Z,36.70
2019-06-27T16:13:42.631Z,36.70
2019-06-27T16:16:11.841Z,36.70
2019-06-27T16:18:41.126Z,36.60
2019-06-27T16:21:10.315Z,36.50
2019-06-27T16:23:39.435Z,36.50
2019-06-27T16:26:08.525Z,36.50
2019-06-27T16:28:37.649Z,36.50
2019-06-27T16:31:06.758Z,36.40
2019-06-27T16:33:35.910Z,36.40
2019-06-27T16:36:05.085Z,36.40
2019-06-27T16:38:34.263Z,36.40
2019-06-27T16:41:03.384Z,36.40
2019-06-27T16:43:32.491Z,36.30
2019-06-27T16:46:01.679Z,36.30
2019-06-27T16:48:30.801Z,36.20
2019-06-27T16:50:59.897Z,36.20
2019-06-27T16:53:28.995Z,36.10
2019-06-27T16:55:58.212Z,36.10
2019-06-27T16:58:27.375Z,36.00
2019-06-27T17:00:56.480Z,36.00
2019-06-27T17:03:26.536Z,35.90
2019-06-27T17:05:55.721Z,35.80
2019-06-27T17:08:24.812Z,35.80
2019-06-27T17:10:53.939Z,35.80
2019-06-27T17:13:22.932Z,35.70
2019-06-27T17:15:52.123Z,35.70
2019-06-27T17:18:21.192Z,35.60
2019-06-27T17:20:50.348Z,35.60
2019-06-27T17:23:19.462Z,35.60
2019-06-27T17:25:48.542Z,35.50
2019-06-27T17:28:17.662Z,35.50
2019-06-27T17:30:46.801Z,35.40
2019-06-27T17:33:15.842Z,35.40
2019-06-27T17:35:45.235Z,35.20
2019-06-27T17:38:14.360Z,35.20
2019-06-27T17:40:43.498Z,35.10
2019-06-27T17:43:12.666Z,35.10
2019-06-27T17:45:41.728Z,35.00
2019-06-27T17:48:10.861Z,34.90
2019-06-27T17:50:39.954Z,34.80
2019-06-27T17:53:09.074Z,34.70
2019-06-27T17:55:38.155Z,34.70
2019-06-27T17:58:07.264Z,34.60
2019-06-27T18:00:36.380Z,34.50
2019-06-27T18:03:05.586Z,34.40
2019-06-27T18:05:34.572Z,34.40
2019-06-27T18:08:03.678Z,34.30
2019-06-27T18:10:32.765Z,34.30
2019-06-27T18:13:01.906Z,34.20
2019-06-27T18:15:31.077Z,34.20
2019-06-27T18:18:00.192Z,34.10
2019-06-27T18:20:29.284Z,34.00
2019-06-27T18:22:58.405Z,33.90
2019-06-27T18:25:27.490Z,33.80
2019-06-27T18:27:56.601Z,33.60
2019-06-27T18:30:25.781Z,33.60
2019-06-27T18:32:54.931Z,33.50
2019-06-27T18:35:24.020Z,33.40
2019-06-27T18:37:53.169Z,33.30
2019-06-27T18:40:22.472Z,33.20
2019-06-27T18:42:51.586Z,33.20
2019-06-27T18:45:20.830Z,33.10
2019-06-27T18:47:49.969Z,33.00
2019-06-27T18:50:19.226Z,32.90
2019-06-27T18:52:48.353Z,32.90
2019-06-27T18:55:17.369Z,32.80
2019-06-27T18:57:46.478Z,32.70
2019-06-27T19:00:15.776Z,32.70
2019-06-27T19:02:44.850Z,32.50
2019-06-27T19:05:14.077Z,32.50
2019-06-27T19:07:45.981Z,32.30
2019-06-27T19:10:14.504Z,32.20
2019-06-27T19:12:43.643Z,32.10
2019-06-27T19:15:13.173Z,32.00
2019-06-27T19:17:42.301Z,31.90
2019-06-27T19:20:36.752Z,31.80
2019-06-27T19:23:24.910Z,31.70
2019-06-27T19:25:56.485Z,31.50
2019-06-27T19:28:25.603Z,31.40
2019-06-27T19:30:54.823Z,31.30
2019-06-27T19:33:23.841Z,31.20
2019-06-27T19:35:52.934Z,31.10
2019-06-27T19:38:22.027Z,31.00
2019-06-27T19:40:51.112Z,30.90
2019-06-27T19:43:27.916Z,30.80
2019-06-27T19:45:51.024Z,30.70
2019-06-27T19:48:21.455Z,30.60
2019-06-27T19:50:50.934Z,30.60
2019-06-27T19:53:20.053Z,30.60
2019-06-27T19:55:49.163Z,30.50
2019-06-27T19:58:18.259Z,30.40
2019-06-27T20:00:47.374Z,30.40
2019-06-27T20:03:16.489Z,30.30
2019-06-27T20:05:45.697Z,30.20
2019-06-27T20:08:19.707Z,30.10
2019-06-27T20:10:46.040Z,30.10
2019-06-27T20:13:15.177Z,30.00
2019-06-27T20:15:44.272Z,29.90
2019-06-27T20:18:13.372Z,29.90
2019-06-27T20:20:42.570Z,29.80
2019-06-27T20:23:11.715Z,29.70
2019-06-27T20:25:40.859Z,29.60
2019-06-27T20:28:10.012Z,29.50
2019-06-27T20:30:39.160Z,29.40
2019-06-27T20:33:08.306Z,29.40
2019-06-27T20:35:37.335Z,29.30
2019-06-27T20:38:06.477Z,29.30
2019-06-27T20:40:35.601Z,29.20
2019-06-27T20:43:04.842Z,29.10
2019-06-27T20:45:34.153Z,29.00
2019-06-27T20:48:03.406Z,28.90
2019-06-27T20:50:32.496Z,28.80
2019-06-27T20:53:01.634Z,28.80
2019-06-27T20:55:30.768Z,28.70
2019-06-27T20:57:59.854Z,28.60
2019-06-27T21:00:28.986Z,28.50
2019-06-27T21:02:58.091Z,28.50
2019-06-27T21:05:27.242Z,28.50
2019-06-27T21:07:56.362Z,28.40
2019-06-27T21:10:25.471Z,28.40
2019-06-27T21:12:54.565Z,28.30
2019-06-27T21:15:23.838Z,28.30
2019-06-27T21:17:52.978Z,28.20
2019-06-27T21:20:22.089Z,28.20
2019-06-27T21:22:51.229Z,28.20
2019-06-27T21:25:20.320Z,28.10
2019-06-27T21:27:49.455Z,28.00
2019-06-27T21:30:18.638Z,28.00
2019-06-27T21:32:48.571Z,27.90
2019-06-27T21:35:17.959Z,27.90
2019-06-27T21:37:48.702Z,27.80
2019-06-27T21:40:18.507Z,27.70
2019-06-27T21:42:47.745Z,27.70
2019-06-27T21:45:17.253Z,27.70
2019-06-27T21:47:46.388Z,27.70
2019-06-27T21:50:15.768Z,27.60
2019-06-27T21:52:44.865Z,27.50
2019-06-27T21:55:14.019Z,27.40
2019-06-27T21:57:43.136Z,27.40
2019-06-27T22:00:12.934Z,27.40
2019-06-27T22:02:42.061Z,27.30
2019-06-27T22:05:12.737Z,27.30
2019-06-27T22:07:43.638Z,27.20
2019-06-27T22:10:14.099Z,27.20
2019-06-27T22:12:43.292Z,27.10
2019-06-27T22:15:12.837Z,27.00
2019-06-27T22:17:41.961Z,27.00
2019-06-27T22:20:15.536Z,26.90
2019-06-27T22:22:42.881Z,26.80
2019-06-27T22:25:12.204Z,26.80
2019-06-27T22:27:41.432Z,26.80
2019-06-27T22:30:11.829Z,26.70
2019-06-27T22:32:40.930Z,26.70
2019-06-27T22:35:10.366Z,26.60
2019-06-27T22:37:38.678Z,26.50
2019-06-27T22:40:26.201Z,26.40
2019-06-27T22:43:13.451Z,26.40
2019-06-27T22:46:00.720Z,26.30
2019-06-27T22:48:29.276Z,26.30
2019-06-27T22:51:06.388Z,26.20
2019-06-27T22:53:40.373Z,26.20
2019-06-27T22:56:09.548Z,26.20
2019-06-27T22:58:38.648Z,26.10
2019-06-27T23:01:07.949Z,26.10
2019-06-27T23:03:37.080Z,26.10
2019-06-27T23:06:06.356Z,26.00
2019-06-27T23:08:35.482Z,26.00
2019-06-27T23:11:04.576Z,25.90
2019-06-27T23:13:33.708Z,25.90
2019-06-27T23:16:02.798Z,25.80
2019-06-27T23:18:31.910Z,25.80
2019-06-27T23:21:01.043Z,25.70
2019-06-27T23:23:30.163Z,25.70
2019-06-27T23:25:59.246Z,25.60
2019-06-27T23:28:28.354Z,25.60
2019-06-27T23:30:57.388Z,25.60
2019-06-27T23:33:26.508Z,25.50
2019-06-27T23:35:56.710Z,25.50
2019-06-27T23:38:25.859Z,25.40
2019-06-27T23:40:54.936Z,25.40
2019-06-27T23:43:24.059Z,25.30
2019-06-27T23:45:53.240Z,25.30
2019-06-27T23:48:22.319Z,25.20
2019-06-27T23:50:52.889Z,25.20
2019-06-27T23:53:21.999Z,25.20
2019-06-27T23:55:51.115Z,25.10
2019-06-27T23:58:20.186Z,25.10
